Time;durP1;ratioP1;P1;durP2;ratioP2;P2;SDS_P1;SDS_P2;PMS_P1;PMS_P2;Temp;Humidity;BMP_temperature;BMP_pressure;BME280_temperature;BME280_humidity;BME280_pressure;Samples;Min_cycle;Max_cycle;Signal;HPM_P1;HPM_P2
2020/12/02 00:01:28;;;;;;;13.50;8.70;;;6.70;99.90;;;;;;5090947;28;20417;-66
2020/12/02 00:03:59;;;;;;;10.90;8.10;;;6.60;1.00;;;;;;5091164;28;20454;-66
2020/12/02 00:06:28;;;;;;;10.82;7.65;;;6.50;1.00;;;;;;5091158;28;20429;-66
2020/12/02 00:08:58;;;;;;;11.50;8.30;;;6.50;99.90;;;;;;5091039;28;20425;-66
2020/12/02 00:11:25;;;;;;;8.77;7.00;;;6.40;99.90;;;;;;5091183;28;20467;-66
2020/12/02 00:13:52;;;;;;;8.98;6.90;;;6.30;1.00;;;;;;5090955;28;20416;-67
2020/12/02 00:16:22;;;;;;;8.77;6.87;;;6.40;1.00;;;;;;5093573;28;20405;-66
2020/12/02 00:18:51;;;;;;;8.82;6.40;;;6.30;1.00;;;;;;5095215;28;20406;-66
2020/12/02 00:21:18;;;;;;;8.23;6.15;;;6.30;5.50;;;;;;5094852;28;20981;-67
2020/12/02 00:23:44;;;;;;;8.48;6.47;;;6.30;94.20;;;;;;5095220;28;20437;-67
2020/12/02 00:26:13;;;;;;;9.88;7.10;;;6.30;99.90;;;;;;5096610;28;20414;-67
2020/12/02 00:28:40;;;;;;;10.47;7.07;;;6.30;99.90;;;;;;5094891;28;20397;-68
2020/12/02 00:31:06;;;;;;;9.55;7.03;;;6.30;99.90;;;;;;5094836;28;20804;-67
2020/12/02 00:33:33;;;;;;;11.57;8.70;;;6.30;99.90;;;;;;5094716;28;20458;-67
2020/12/02 00:35:59;;;;;;;8.20;7.32;;;6.30;99.90;;;;;;5094628;28;20442;-68
2020/12/02 00:38:25;;;;;;;11.25;8.80;;;6.30;99.90;;;;;;5094662;28;20464;-67
2020/12/02 00:40:52;;;;;;;11.32;8.48;;;6.30;1.00;;;;;;5094406;28;20893;-68
2020/12/02 00:43:21;;;;;;;9.55;7.55;;;6.40;1.00;;;;;;5094748;28;20405;-67
2020/12/02 00:45:48;;;;;;;9.60;8.13;;;6.40;99.90;;;;;;5097243;28;20463;-67
2020/12/02 00:48:17;;;;;;;12.65;9.15;;;6.40;1.00;;;;;;5097342;28;20508;-67
2020/12/02 00:50:44;;;;;;;12.85;9.40;;;6.30;99.90;;;;;;5097501;28;20410;-67
2020/12/02 00:53:14;;;;;;;13.65;9.38;;;6.50;99.90;;;;;;5097300;28;20414;-68
2020/12/02 00:55:41;;;;;;;17.92;10.45;;;6.40;1.00;;;;;;5094449;28;20410;-67
2020/12/02 00:58:14;;;;;;;18.77;11.15;;;6.40;5.30;;;;;;5094713;28;20409;-67
2020/12/02 01:00:41;;;;;;;18.40;12.32;;;6.40;99.90;;;;;;5094611;28;20406;-67
2020/12/02 01:03:13;;;;;;;20.80;12.40;;;6.40;1.00;;;;;;5098472;28;20475;-67
2020/12/02 01:05:40;;;;;;;25.43;14.13;;;6.30;1.00;;;;;;5106758;28;20405;-67
2020/12/02 01:08:20;;;;;;;29.50;15.80;;;6.40;99.90;;;;;;5102151;28;20459;-67
2020/12/02 01:10:51;;;;;;;28.70;15.70;;;6.20;99.90;;;;;;5095700;28;20410;-67
2020/12/02 01:13:17;;;;;;;30.20;15.93;;;6.20;99.90;;;;;;5094022;28;20411;-67
2020/12/02 01:15:44;;;;;;;37.17;17.98;;;6.20;1.00;;;;;;5094008;28;20402;-68
2020/12/02 01:18:15;;;;;;;57.40;20.50;;;6.20;1.00;;;;;;5093805;28;20462;-67
2020/12/02 01:20:41;;;;;;;54.83;21.92;;;6.20;35.40;;;;;;5093503;28;20490;-67
2020/12/02 01:23:11;;;;;;;50.65;21.63;;;6.20;99.90;;;;;;5093796;28;20422;-67
2020/12/02 01:25:39;;;;;;;51.67;22.00;;;6.10;99.30;;;;;;5093916;28;20438;-67
2020/12/02 01:28:07;;;;;;;51.03;23.40;;;6.10;99.90;;;;;;5095091;28;20451;-67
2020/12/02 01:30:36;;;;;;;61.17;25.87;;;6.20;99.90;;;;;;5093469;28;20401;-67
2020/12/02 01:33:03;;;;;;;69.13;27.13;;;6.20;99.90;;;;;;5093172;28;20461;-67
2020/12/02 01:35:31;;;;;;;67.00;25.70;;;6.20;99.90;;;;;;5093489;28;20467;-67
2020/12/02 01:38:00;;;;;;;84.28;28.38;;;6.20;99.90;;;;;;5093205;28;20415;-67
2020/12/02 01:40:27;;;;;;;96.28;29.00;;;6.20;99.90;;;;;;5093398;28;20465;-67
2020/12/02 01:43:00;;;;;;;78.20;28.67;;;6.20;99.90;;;;;;5093003;28;20906;-67
2020/12/02 01:45:30;;;;;;;66.55;25.98;;;6.30;99.90;;;;;;5093131;28;20876;-67
2020/12/02 01:48:08;;;;;;;50.33;23.52;;;6.30;99.90;;;;;;5093448;28;20436;-67
2020/12/02 01:50:37;;;;;;;40.28;20.45;;;6.30;99.90;;;;;;5093267;28;20433;-67
2020/12/02 01:53:09;;;;;;;43.50;22.33;;;6.30;1.00;;;;;;5093038;28;20460;-67
2020/12/02 01:55:39;;;;;;;49.28;24.58;;;6.20;1.00;;;;;;5093013;28;20936;-67
2020/12/02 01:58:15;;;;;;;43.25;22.55;;;6.10;1.00;;;;;;5092982;28;20463;-67
2020/12/02 02:00:44;;;;;;;42.30;22.23;;;6.10;25.10;;;;;;5092889;28;20436;-67
2020/12/02 02:03:14;;;;;;;40.40;22.33;;;6.10;14.20;;;;;;5092611;28;20425;-67
2020/12/02 02:05:55;;;;;;;41.38;21.42;;;6.20;55.60;;;;;;5092793;28;20405;-67
2020/12/02 02:08:23;;;;;;;43.75;22.17;;;6.20;1.00;;;;;;5092791;28;20412;-67
2020/12/02 02:10:50;;;;;;;32.47;21.00;;;6.20;1.00;;;;;;5092770;28;20413;-67
2020/12/02 02:13:35;;;;;;;40.00;21.47;;;6.30;1.00;;;;;;5092891;28;20410;-67
2020/12/02 02:16:07;;;;;;;38.67;20.50;;;6.20;99.90;;;;;;5092764;28;20462;-67
2020/12/02 02:18:33;;;;;;;37.13;21.20;;;6.20;99.90;;;;;;5092703;28;20869;-67
2020/12/02 02:21:02;;;;;;;35.10;19.52;;;6.20;1.00;;;;;;5092721;28;20455;-67
2020/12/02 02:23:29;;;;;;;29.83;19.00;;;6.30;1.00;;;;;;5093041;28;20397;-68
2020/12/02 02:26:07;;;;;;;33.63;19.90;;;6.30;99.90;;;;;;5093055;28;20778;-68
2020/12/02 02:28:35;;;;;;;38.13;20.45;;;6.30;99.80;;;;;;5092728;28;20463;-67
2020/12/02 02:31:02;;;;;;;40.58;19.63;;;6.20;33.60;;;;;;5092477;28;20482;-67
2020/12/02 02:33:29;;;;;;;35.85;19.70;;;6.20;99.90;;;;;;5092307;28;20451;-66
2020/12/02 02:35:55;;;;;;;39.40;20.95;;;6.30;90.00;;;;;;5092364;28;21136;-66
2020/12/02 02:38:23;;;;;;;40.28;19.88;;;6.30;99.90;;;;;;5092102;28;20411;-66
2020/12/02 02:40:50;;;;;;;38.65;20.65;;;6.20;1.00;;;;;;5092070;28;20405;-66
2020/12/02 02:43:17;;;;;;;41.08;21.30;;;6.20;1.00;;;;;;5092875;28;20444;-67
2020/12/02 02:45:43;;;;;;;41.38;20.13;;;6.30;57.20;;;;;;5093090;28;20554;-66
2020/12/02 02:48:09;;;;;;;34.00;19.13;;;6.30;1.00;;;;;;5092939;28;20405;-66
2020/12/02 02:50:36;;;;;;;34.40;18.67;;;6.40;31.90;;;;;;5093392;28;20471;-66
2020/12/02 02:53:13;;;;;;;32.47;19.98;;;6.40;1.00;;;;;;5092488;28;20397;-66
2020/12/02 02:55:39;;;;;;;39.88;21.00;;;6.30;99.90;;;;;;5091874;28;20874;-67
2020/12/02 02:58:06;;;;;;;39.13;20.25;;;6.40;99.90;;;;;;5091861;28;20406;-66
2020/12/02 03:00:34;;;;;;;35.45;20.52;;;6.40;99.90;;;;;;5091532;28;20405;-66
2020/12/02 03:03:01;;;;;;;34.75;19.40;;;6.40;99.90;;;;;;5091760;28;20471;-66
2020/12/02 03:05:28;;;;;;;35.97;20.05;;;6.40;99.90;;;;;;5091809;28;20413;-67
2020/12/02 03:07:58;;;;;;;34.38;19.77;;;6.30;1.00;;;;;;5091720;28;20405;-66
2020/12/02 03:10:31;;;;;;;34.45;19.95;;;6.40;90.50;;;;;;5091686;28;20401;-66
2020/12/02 03:13:02;;;;;;;36.05;18.63;;;6.40;1.00;;;;;;5091580;28;20440;-66
2020/12/02 03:15:28;;;;;;;33.25;18.00;;;6.40;1.00;;;;;;5091415;28;20441;-66
2020/12/02 03:17:56;;;;;;;33.08;18.90;;;6.50;1.00;;;;;;5091609;28;20483;-66
2020/12/02 03:20:29;;;;;;;32.92;17.00;;;6.50;1.00;;;;;;5091314;28;20402;-66
2020/12/02 03:22:55;;;;;;;38.85;20.50;;;6.40;1.00;;;;;;5091311;28;20452;-66
2020/12/02 03:25:27;;;;;;;34.97;19.35;;;6.40;1.00;;;;;;5091341;28;20463;-66
2020/12/02 03:27:53;;;;;;;43.55;20.58;;;6.40;1.00;;;;;;5091257;28;20396;-66
2020/12/02 03:30:20;;;;;;;35.42;19.30;;;6.30;99.90;;;;;;5091002;28;20890;-66
2020/12/02 03:32:46;;;;;;;34.38;18.55;;;6.30;1.00;;;;;;5091248;28;20805;-66
2020/12/02 03:35:13;;;;;;;31.35;19.08;;;6.30;1.00;;;;;;5091246;28;20418;-67
2020/12/02 03:37:40;;;;;;;30.33;17.40;;;6.20;1.00;;;;;;5091087;28;20440;-66
2020/12/02 03:40:07;;;;;;;33.80;17.85;;;6.20;20.40;;;;;;5090923;28;20401;-66
2020/12/02 03:42:34;;;;;;;35.42;18.08;;;6.00;1.00;;;;;;5091795;28;20816;-67
2020/12/02 03:45:00;;;;;;;32.08;17.55;;;6.00;99.90;;;;;;5091021;28;20924;-66
2020/12/02 03:47:27;;;;;;;41.40;19.00;;;6.10;1.00;;;;;;5090929;28;20410;-66
2020/12/02 03:49:53;;;;;;;41.78;18.80;;;5.90;33.50;;;;;;5090790;28;20411;-67
2020/12/02 03:52:20;;;;;;;35.55;18.50;;;5.80;99.90;;;;;;5090890;28;20935;-66
2020/12/02 03:54:46;;;;;;;41.90;19.42;;;5.80;1.00;;;;;;5090921;28;20405;-66
2020/12/02 03:57:13;;;;;;;34.45;18.15;;;5.80;1.00;;;;;;5091214;28;20406;-66
2020/12/02 03:59:39;;;;;;;32.88;18.63;;;5.80;1.00;;;;;;5091087;28;20823;-67
2020/12/02 04:02:05;;;;;;;38.78;19.35;;;5.90;1.00;;;;;;5090975;28;20429;-65
2020/12/02 04:04:31;;;;;;;39.13;18.73;;;5.80;99.90;;;;;;5091158;28;20409;-65
2020/12/02 04:06:57;;;;;;;36.42;19.17;;;5.70;99.90;;;;;;5090955;28;20410;-65
2020/12/02 04:09:25;;;;;;;41.78;19.73;;;5.70;1.00;;;;;;5091315;28;20459;-65
2020/12/02 04:11:51;;;;;;;42.80;21.17;;;5.60;1.00;;;;;;5091187;28;20402;-65
2020/12/02 04:14:17;;;;;;;49.42;22.20;;;5.60;99.90;;;;;;5091026;28;20462;-65
2020/12/02 04:16:43;;;;;;;47.75;20.55;;;5.50;99.90;;;;;;5091000;28;20785;-65
2020/12/02 04:19:09;;;;;;;43.15;21.08;;;5.60;1.00;;;;;;5090878;28;20459;-65
2020/12/02 04:21:35;;;;;;;44.53;20.80;;;5.50;99.90;;;;;;5090514;28;20909;-66
2020/12/02 04:24:01;;;;;;;43.45;21.05;;;5.50;1.00;;;;;;5090854;28;20796;-66
2020/12/02 04:26:29;;;;;;;37.10;19.40;;;5.60;1.00;;;;;;5090857;28;20509;-66
2020/12/02 04:28:55;;;;;;;42.80;18.58;;;5.60;1.00;;;;;;5090831;28;20477;-66
2020/12/02 04:31:21;;;;;;;34.65;17.63;;;5.50;24.30;;;;;;5090575;28;20402;-65
2020/12/02 04:33:47;;;;;;;39.22;19.50;;;5.40;1.00;;;;;;5091366;28;20874;-65
2020/12/02 04:36:14;;;;;;;43.20;19.53;;;5.30;99.90;;;;;;5090958;28;20410;-65
2020/12/02 04:38:40;;;;;;;37.97;18.17;;;5.20;1.00;;;;;;5090526;28;20783;-65
2020/12/02 04:41:11;;;;;;;48.03;20.50;;;5.20;1.00;;;;;;5090770;28;20405;-65
2020/12/02 04:43:40;;;;;;;33.35;17.40;;;5.20;99.90;;;;;;5090532;28;20904;-67
2020/12/02 04:46:14;;;;;;;37.55;19.83;;;5.30;99.90;;;;;;5091085;28;20422;-66
2020/12/02 04:48:42;;;;;;;43.00;19.23;;;5.40;99.90;;;;;;5091049;28;20527;-66
2020/12/02 04:51:14;;;;;;;35.45;17.88;;;5.50;1.00;;;;;;5090615;28;20435;-66
2020/12/02 04:53:44;;;;;;;35.85;17.92;;;5.50;1.00;;;;;;5091043;28;20466;-66
2020/12/02 04:56:10;;;;;;;35.65;17.80;;;5.50;99.90;;;;;;5091149;28;20826;-67
2020/12/02 04:58:39;;;;;;;40.60;18.85;;;5.40;99.90;;;;;;5090843;28;20417;-67
2020/12/02 05:01:18;;;;;;;40.80;18.73;;;5.40;99.90;;;;;;5090210;28;20886;-66
2020/12/02 05:03:49;;;;;;;39.47;18.38;;;5.40;99.90;;;;;;5093149;28;20429;-67
2020/12/02 05:06:22;;;;;;;35.78;18.17;;;5.50;99.90;;;;;;5094253;28;20402;-67
2020/12/02 05:08:49;;;;;;;40.55;19.02;;;5.50;99.90;;;;;;5094061;28;20405;-67
2020/12/02 05:11:15;;;;;;;43.28;19.67;;;5.40;1.00;;;;;;5094071;28;20463;-67
2020/12/02 05:13:57;;;;;;;47.17;22.33;;;5.40;1.00;;;;;;5093683;28;20435;-67
2020/12/02 05:16:24;;;;;;;48.58;20.63;;;5.40;44.90;;;;;;5092905;28;20404;-67
2020/12/02 05:18:58;;;;;;;45.80;22.17;;;5.40;1.00;;;;;;5094086;28;20410;-67
2020/12/02 05:21:29;;;;;;;54.28;21.30;;;5.30;1.00;;;;;;5093960;28;20412;-67
2020/12/02 05:24:03;;;;;;;48.85;20.58;;;5.30;61.40;;;;;;5093856;28;20397;-67
2020/12/02 05:26:31;;;;;;;46.60;22.38;;;5.30;1.00;;;;;;5093110;28;20824;-68
2020/12/02 05:28:58;;;;;;;49.45;22.38;;;5.20;16.70;;;;;;5093738;28;20475;-69
2020/12/02 05:31:28;;;;;;;43.15;22.15;;;5.20;99.90;;;;;;5093333;28;20455;-68
2020/12/02 05:34:06;;;;;;;45.00;21.83;;;5.20;41.10;;;;;;5093572;28;20459;-68
2020/12/02 05:36:37;;;;;;;54.03;24.42;;;5.10;99.90;;;;;;5093384;28;20459;-69
2020/12/02 05:39:07;;;;;;;46.40;23.97;;;5.20;1.00;;;;;;5093088;28;20402;-69
2020/12/02 05:41:34;;;;;;;52.28;24.85;;;5.20;1.00;;;;;;5093138;28;20414;-68
2020/12/02 05:44:07;;;;;;;55.83;24.20;;;5.20;99.90;;;;;;5093285;28;20496;-68
2020/12/02 05:46:39;;;;;;;54.40;21.92;;;5.10;99.90;;;;;;5098757;28;20450;-68
2020/12/02 05:49:08;;;;;;;64.32;26.55;;;5.00;99.90;;;;;;5102626;28;20809;-66
2020/12/02 05:51:34;;;;;;;52.25;24.40;;;5.10;26.60;;;;;;5096553;28;20402;-68
2020/12/02 05:54:06;;;;;;;55.60;24.50;;;5.20;45.50;;;;;;5093165;28;21082;-68
2020/12/02 05:56:32;;;;;;;47.08;20.92;;;5.30;1.00;;;;;;5093188;28;20413;-68
2020/12/02 05:58:58;;;;;;;50.10;21.50;;;5.20;1.00;;;;;;5093216;28;20405;-68
2020/12/02 06:01:26;;;;;;;49.35;21.77;;;5.20;99.90;;;;;;5095237;28;20456;-68
2020/12/02 06:03:55;;;;;;;44.70;22.25;;;5.30;1.00;;;;;;5097328;28;20408;-67
2020/12/02 06:06:22;;;;;;;50.60;23.40;;;5.20;99.90;;;;;;5098416;28;20854;-68
2020/12/02 06:08:50;;;;;;;56.72;24.42;;;5.30;99.90;;;;;;5097393;28;20466;-68
2020/12/02 06:11:34;;;;;;;63.60;25.98;;;5.20;99.90;;;;;;5092632;28;20751;-68
2020/12/02 06:14:06;;;;;;;54.08;25.15;;;5.20;1.00;;;;;;5092353;28;20447;-68
2020/12/02 06:16:42;;;;;;;61.97;25.73;;;5.20;1.00;;;;;;5092575;28;20414;-68
2020/12/02 06:19:28;;;;;;;59.47;25.65;;;5.10;99.90;;;;;;5092425;28;21120;-68
2020/12/02 06:21:56;;;;;;;66.22;27.10;;;5.10;1.00;;;;;;5092461;28;20413;-68
2020/12/02 06:24:38;;;;;;;59.40;27.20;;;5.20;1.00;;;;;;5092616;28;20462;-68
2020/12/02 06:27:37;;;;;;;52.97;24.92;;;5.20;1.00;;;;;;5092551;28;20418;-67
2020/12/02 06:30:14;;;;;;;45.42;21.55;;;5.20;1.00;;;;;;5071682;28;20403;-67
2020/12/02 06:32:58;;;;;;;39.40;20.58;;;5.20;1.00;;;;;;5072244;28;20408;-67
2020/12/02 06:35:27;;;;;;;37.22;19.00;;;5.20;1.00;;;;;;5071917;28;20420;-68
2020/12/02 06:38:12;;;;;;;25.83;15.48;;;5.20;1.00;;;;;;5072173;28;20416;-69
2020/12/02 06:41:03;;;;;;;24.15;15.27;;;5.10;99.90;;;;;;5072221;28;20588;-68
2020/12/02 06:43:31;;;;;;;24.83;15.40;;;5.20;99.90;;;;;;5071745;28;20423;-68
2020/12/02 06:46:01;;;;;;;21.33;13.32;;;5.20;99.90;;;;;;5072868;28;20407;-69
2020/12/02 06:48:34;;;;;;;22.00;14.63;;;5.20;1.00;;;;;;5072192;28;20490;-69
2020/12/02 06:51:02;;;;;;;25.08;14.27;;;5.10;1.00;;;;;;5072302;28;20464;-69
2020/12/02 06:53:28;;;;;;;21.73;13.57;;;5.00;1.00;;;;;;5072021;28;20407;-70
2020/12/02 06:55:57;;;;;;;22.17;13.55;;;5.00;1.00;;;;;;5072444;28;20412;-68
2020/12/02 06:58:23;;;;;;;24.23;14.90;;;5.00;1.00;;;;;;5072698;28;20423;-66
2020/12/02 07:00:51;;;;;;;21.77;13.98;;;5.00;99.90;;;;;;5071558;28;20941;-68
2020/12/02 07:03:25;;;;;;;22.52;14.60;;;5.10;99.90;;;;;;5072195;28;20428;-67
2020/12/02 07:06:05;;;;;;;23.77;13.90;;;5.10;99.90;;;;;;5072558;28;20412;-68
2020/12/02 07:08:34;;;;;;;27.40;17.48;;;5.20;99.90;;;;;;5073016;28;20419;-67
2020/12/02 07:11:08;;;;;;;33.70;17.50;;;5.20;1.00;;;;;;5071699;28;20411;-69
2020/12/02 07:13:37;;;;;;;33.42;19.52;;;5.10;1.00;;;;;;5071549;28;20415;-67
2020/12/02 07:16:10;;;;;;;40.10;21.20;;;4.80;99.90;;;;;;5072055;28;20476;-67
2020/12/02 07:18:37;;;;;;;46.15;23.80;;;4.90;44.90;;;;;;5072241;28;20457;-69
2020/12/02 07:21:16;;;;;;;41.53;21.90;;;4.90;99.90;;;;;;5071609;28;20418;-67
2020/12/02 07:23:42;;;;;;;58.08;28.40;;;5.00;1.00;;;;;;5071481;28;20428;-67
2020/12/02 07:26:12;;;;;;;51.40;24.20;;;5.00;99.90;;;;;;5071168;28;20412;-67
2020/12/02 07:28:39;;;;;;;42.80;23.27;;;5.10;1.00;;;;;;5072075;28;20400;-68
2020/12/02 07:31:24;;;;;;;62.63;25.40;;;5.10;99.90;;;;;;5075141;28;20454;-67
2020/12/02 07:34:12;;;;;;;61.22;27.10;;;5.30;99.90;;;;;;5071608;28;20564;-68
2020/12/02 07:36:40;;;;;;;67.57;30.23;;;5.30;1.00;;;;;;5071420;28;20403;-68
2020/12/02 07:39:12;;;;;;;48.07;25.73;;;5.40;1.00;;;;;;5071002;28;20594;-68
2020/12/02 07:41:47;;;;;;;89.55;31.77;;;5.40;99.90;;;;;;5071193;28;20403;-67
2020/12/02 07:44:13;;;;;;;70.55;28.25;;;5.50;99.90;;;;;;5070871;28;20740;-68
2020/12/02 07:46:39;;;;;;;74.50;28.35;;;5.30;6.30;;;;;;5071356;28;20412;-68
2020/12/02 07:49:09;;;;;;;69.88;29.67;;;5.20;1.00;;;;;;5071003;28;20473;-68
2020/12/02 07:51:41;;;;;;;90.32;42.42;;;5.20;4.50;;;;;;5071285;28;20415;-67
2020/12/02 07:54:13;;;;;;;79.63;38.03;;;5.30;1.00;;;;;;5071368;28;20458;-68
2020/12/02 07:56:41;;;;;;;67.10;29.90;;;5.30;1.00;;;;;;5071246;28;20480;-68
2020/12/02 07:59:16;;;;;;;66.10;27.35;;;5.30;1.00;;;;;;5071236;28;20411;-68
2020/12/02 08:02:07;;;;;;;57.13;26.85;;;5.30;99.90;;;;;;5071147;28;20393;-66
2020/12/02 08:04:38;;;;;;;66.10;29.25;;;5.30;99.90;;;;;;5071105;28;20432;-66
2020/12/02 08:07:07;;;;;;;67.50;30.07;;;5.30;15.60;;;;;;5071048;28;20822;-66
2020/12/02 08:09:37;;;;;;;91.80;34.67;;;5.20;1.00;;;;;;5070771;28;20476;-66
2020/12/02 08:12:06;;;;;;;101.68;34.75;;;5.10;1.00;;;;;;5071750;28;20403;-66
2020/12/02 08:14:35;;;;;;;89.38;34.03;;;5.10;99.90;;;;;;5070981;28;20437;-67
2020/12/02 08:17:12;;;;;;;63.42;27.73;;;5.10;51.10;;;;;;5070921;28;20449;-68
2020/12/02 08:19:41;;;;;;;50.28;26.10;;;5.10;89.00;;;;;;5070738;28;20441;-67
2020/12/02 08:22:16;;;;;;;49.83;25.83;;;5.10;1.00;;;;;;5071084;28;20448;-68
2020/12/02 08:24:44;;;;;;;56.58;27.17;;;5.00;1.00;;;;;;5071173;28;20411;-68
2020/12/02 08:27:13;;;;;;;88.03;29.88;;;4.90;1.00;;;;;;5070732;28;20408;-69
2020/12/02 08:29:46;;;;;;;69.35;28.10;;;4.80;99.90;;;;;;5070570;28;20412;-67
2020/12/02 08:32:22;;;;;;;68.35;27.67;;;4.90;99.90;;;;;;5070776;28;20818;-68
2020/12/02 08:34:48;;;;;;;47.42;25.35;;;5.00;1.00;;;;;;5070967;28;20465;-68
2020/12/02 08:37:33;;;;;;;61.95;25.20;;;5.20;99.90;;;;;;5071490;28;20469;-68
2020/12/02 08:40:22;;;;;;;70.47;24.98;;;5.20;99.90;;;;;;5074033;28;20415;-69
2020/12/02 08:42:48;;;;;;;69.40;26.80;;;7.10;7.00;;;;;;5074929;28;20431;-69
2020/12/02 08:45:18;;;;;;;70.13;27.88;;;5.20;1.00;;;;;;5075245;28;20423;-68
2020/12/02 08:47:51;;;;;;;88.40;28.77;;;5.20;91.70;;;;;;5076055;28;20811;-68
2020/12/02 09:01:59;;;;;;;35.05;20.63;;;5.40;1.00;;;;;;5867042;23;20436;-67
2020/12/02 09:04:26;;;;;;;31.60;19.90;;;5.50;1.00;;;;;;5014761;28;20412;-69
2020/12/02 09:06:52;;;;;;;35.30;21.00;;;5.60;1.00;;;;;;5014780;28;20758;-69
2020/12/02 09:09:18;;;;;;;30.85;18.92;;;5.60;1.00;;;;;;5013361;28;20416;-66
2020/12/02 09:11:44;;;;;;;30.58;19.13;;;5.60;1.00;;;;;;5014037;28;20417;-66
2020/12/02 09:14:10;;;;;;;27.90;18.05;;;5.80;1.00;;;;;;5014734;28;20408;-68
2020/12/02 09:16:40;;;;;;;29.85;18.52;;;7.80;1.00;;;;;;5016610;28;20466;-67
2020/12/02 09:19:10;;;;;;;27.98;17.17;;;5.90;99.90;;;;;;5013783;28;20836;-67
2020/12/02 09:21:36;;;;;;;28.75;18.15;;;5.90;99.90;;;;;;5014215;28;20413;-68
2020/12/02 09:24:03;;;;;;;27.10;17.38;;;5.90;99.90;;;;;;5013371;28;20429;-67
2020/12/02 09:26:33;;;;;;;30.27;18.23;;;6.00;99.90;;;;;;5013969;28;20964;-67
2020/12/02 09:29:00;;;;;;;28.15;18.08;;;5.90;50.90;;;;;;5013710;28;20784;-66
2020/12/02 09:31:28;;;;;;;31.35;17.98;;;5.80;90.10;;;;;;5013469;28;20881;-66
2020/12/02 09:33:55;;;;;;;32.87;18.97;;;5.80;29.00;;;;;;5013834;28;20517;-66
2020/12/02 09:36:23;;;;;;;31.40;18.25;;;5.70;57.10;;;;;;5013850;28;20483;-66
2020/12/02 09:38:51;;;;;;;32.20;19.92;;;5.70;81.20;;;;;;5013575;28;20450;-64
2020/12/02 09:41:31;;;;;;;29.23;19.02;;;5.80;99.90;;;;;;5013982;28;20425;-65
2020/12/02 09:44:12;;;;;;;28.65;18.70;;;5.80;50.90;;;;;;5014279;28;20516;-65
2020/12/02 09:46:42;;;;;;;32.55;18.35;;;5.90;90.40;;;;;;5015462;28;20416;-66
2020/12/02 09:49:11;;;;;;;31.38;19.35;;;6.00;99.90;;;;;;5013547;28;20438;-67
2020/12/02 09:51:41;;;;;;;30.77;19.38;;;6.00;1.00;;;;;;5014417;28;20413;-66
2020/12/02 09:54:10;;;;;;;28.90;18.23;;;5.90;1.00;;;;;;5014446;28;20884;-65
2020/12/02 09:56:41;;;;;;;27.27;17.10;;;6.00;5.40;;;;;;5015452;28;20408;-66
2020/12/02 09:59:10;;;;;;;25.95;16.83;;;6.00;1.00;;;;;;5015552;28;20423;-65
2020/12/02 10:01:51;;;;;;;27.67;17.80;;;6.10;1.00;;;;;;5014003;28;20825;-66
2020/12/02 10:04:54;;;;;;;26.55;16.63;;;6.10;1.00;;;;;;5014117;28;20429;-65
2020/12/02 10:07:30;;;;;;;26.88;17.60;;;6.00;1.00;;;;;;5013457;28;20479;-66
2020/12/02 10:10:08;;;;;;;26.77;18.40;;;6.00;1.00;;;;;;5012464;28;20959;-66
2020/12/02 10:13:02;;;;;;;25.00;17.83;;;6.00;1.00;;;;;;5014983;28;20445;-66
2020/12/02 10:15:40;;;;;;;22.88;16.63;;;6.00;1.00;;;;;;5004501;28;20435;-66
2020/12/02 10:18:28;;;;;;;23.67;16.50;;;6.10;1.00;;;;;;5013367;28;20869;-65
2020/12/02 10:21:04;;;;;;;22.35;16.33;;;6.20;1.00;;;;;;5013193;28;20443;-65
2020/12/02 10:24:11;;;;;;;22.67;16.42;;;6.30;1.00;;;;;;5012905;28;20847;-65
2020/12/02 10:27:02;;;;;;;21.77;15.38;;;6.40;1.00;;;;;;4983534;28;20482;-66
2020/12/02 10:29:34;;;;;;;22.58;14.77;;;6.30;1.00;;;;;;5013826;28;20445;-65
2020/12/02 10:32:14;;;;;;;24.67;16.30;;;6.10;1.00;;;;;;5013428;28;20482;-68
2020/12/02 10:34:43;;;;;;;24.53;16.43;;;5.90;1.00;;;;;;5013623;28;20474;-66
2020/12/02 10:37:18;;;;;;;25.58;16.33;;;5.80;1.00;;;;;;5013377;28;20416;-67
2020/12/02 10:39:45;;;;;;;21.73;15.63;;;5.80;99.90;;;;;;5013421;28;20425;-66
2020/12/02 10:42:20;;;;;;;26.40;15.93;;;5.80;99.90;;;;;;5018150;28;20428;-66
2020/12/02 10:45:05;;;;;;;26.95;17.02;;;5.90;91.90;;;;;;5018874;28;20440;-66
2020/12/02 10:48:00;;;;;;;23.07;17.00;;;6.10;99.90;;;;;;5015951;28;20407;-68
2020/12/02 10:50:30;;;;;;;23.67;16.63;;;6.30;99.90;;;;;;5012985;28;20416;-66
2020/12/02 10:52:59;;;;;;;24.20;16.05;;;6.30;1.00;;;;;;5015967;28;20513;-68
2020/12/02 10:55:28;;;;;;;20.38;14.45;;;6.40;1.00;;;;;;5014102;28;20420;-68
2020/12/02 10:57:59;;;;;;;23.75;15.52;;;6.40;1.00;;;;;;5022612;28;20427;-67
2020/12/02 11:00:26;;;;;;;22.73;15.10;;;6.20;1.00;;;;;;5023943;28;20509;-67
2020/12/02 11:03:17;;;;;;;24.42;15.95;;;6.20;1.00;;;;;;5022974;28;20452;-67
2020/12/02 11:05:47;;;;;;;22.13;16.08;;;6.20;1.00;;;;;;5017080;28;20420;-67
2020/12/02 11:08:21;;;;;;;22.50;14.65;;;6.30;1.00;;;;;;5012354;28;20458;-66
2020/12/02 11:11:02;;;;;;;19.77;14.30;;;6.50;1.00;;;;;;5012210;28;20496;-66
2020/12/02 11:13:37;;;;;;;19.00;13.52;;;6.70;1.00;;;;;;5011982;28;20539;-66
2020/12/02 11:16:06;;;;;;;15.07;12.20;;;6.80;99.90;;;;;;5012241;28;20439;-67
2020/12/02 11:18:57;;;;;;;16.53;12.10;;;6.90;99.90;;;;;;5011366;28;20428;-65
2020/12/02 11:21:40;;;;;;;16.90;12.75;;;6.90;99.90;;;;;;5011782;28;20420;-66
2020/12/02 11:24:19;;;;;;;16.92;12.68;;;7.00;99.90;;;;;;5012409;28;20473;-67
2020/12/02 11:26:46;;;;;;;15.82;12.05;;;7.00;99.90;;;;;;5013096;28;20449;-66
2020/12/02 11:29:15;;;;;;;15.18;11.88;;;7.10;99.90;;;;;;5012061;28;20470;-66
2020/12/02 11:31:53;;;;;;;17.67;13.40;;;7.10;99.90;;;;;;5012449;28;20478;-66
2020/12/02 11:34:39;;;;;;;15.75;11.57;;;7.10;99.90;;;;;;5013068;28;20425;-66
2020/12/02 11:37:08;;;;;;;18.50;12.90;;;7.00;99.90;;;;;;5012778;28;20420;-67
2020/12/02 11:39:47;;;;;;;15.45;11.00;;;6.90;99.90;;;;;;5011977;28;21192;-66
2020/12/02 11:42:22;;;;;;;16.13;12.37;;;7.00;99.90;;;;;;5012030;28;20428;-64
2020/12/02 11:44:56;;;;;;;15.47;11.63;;;7.00;99.90;;;;;;5012605;28;20449;-64
2020/12/02 11:47:30;;;;;;;15.10;11.85;;;7.10;99.90;;;;;;5012165;28;20458;-64
2020/12/02 11:50:13;;;;;;;19.83;15.20;;;7.20;99.90;;;;;;5011259;28;20416;-65
2020/12/02 11:52:50;;;;;;;18.15;12.25;;;7.20;82.00;;;;;;5012192;28;20481;-65
2020/12/02 11:55:19;;;;;;;16.33;11.95;;;7.20;66.30;;;;;;5011927;28;20417;-64
2020/12/02 11:57:50;;;;;;;14.43;11.10;;;7.20;33.50;;;;;;5012153;28;20487;-64
2020/12/02 12:00:16;;;;;;;13.63;10.27;;;6.90;10.20;;;;;;5011626;28;20920;-65
2020/12/02 12:02:56;;;;;;;15.52;11.10;;;6.80;31.40;;;;;;5014988;28;20433;-66
2020/12/02 12:05:26;;;;;;;15.47;11.97;;;6.80;52.70;;;;;;5013188;28;20436;-65
2020/12/02 12:08:05;;;;;;;14.57;11.13;;;6.80;62.30;;;;;;5014343;28;20590;-65
2020/12/02 12:10:34;;;;;;;8.98;8.05;;;6.80;73.90;;;;;;5011750;28;20420;-66
2020/12/02 12:13:12;;;;;;;7.72;6.93;;;6.80;89.10;;;;;;5015052;28;20470;-65
2020/12/02 12:15:42;;;;;;;9.13;7.28;;;6.60;78.50;;;;;;5015498;28;20432;-66
2020/12/02 12:18:15;;;;;;;8.77;7.97;;;6.60;96.90;;;;;;5015652;28;20495;-66
2020/12/02 12:20:48;;;;;;;9.30;8.40;;;6.50;99.90;;;;;;5015190;28;20416;-66
2020/12/02 12:23:28;;;;;;;9.95;8.77;;;6.30;99.90;;;;;;5015143;28;20965;-66
2020/12/02 12:25:56;;;;;;;10.40;9.30;;;6.20;99.90;;;;;;5015323;28;20457;-66
2020/12/02 12:28:26;;;;;;;10.50;9.40;;;6.00;99.90;;;;;;5015357;28;20420;-67
2020/12/02 12:30:54;;;;;;;10.88;9.88;;;6.00;99.90;;;;;;5015350;28;20459;-67
2020/12/02 12:33:25;;;;;;;9.95;9.05;;;5.80;99.90;;;;;;5016987;28;20408;-67
2020/12/02 12:35:56;;;;;;;10.43;9.43;;;5.60;99.90;;;;;;5017889;28;20467;-66
2020/12/02 12:38:30;;;;;;;9.98;8.98;;;5.50;1.00;;;;;;5015016;28;20412;-65
2020/12/02 12:41:01;;;;;;;10.85;9.38;;;5.50;1.00;;;;;;5014755;28;20413;-66
2020/12/02 12:43:42;;;;;;;11.13;9.23;;;5.50;1.00;;;;;;5014520;28;20520;-66
2020/12/02 12:46:18;;;;;;;9.30;8.50;;;5.60;1.00;;;;;;5015016;28;20462;-65
2020/12/02 12:48:46;;;;;;;11.75;10.30;;;5.60;99.90;;;;;;5015011;28;20416;-65
2020/12/02 12:51:15;;;;;;;11.95;10.50;;;5.20;1.00;;;;;;5014953;28;20416;-66
2020/12/02 12:53:42;;;;;;;14.00;11.23;;;5.20;1.00;;;;;;5014740;28;20419;-65
2020/12/02 12:56:12;;;;;;;11.55;10.20;;;5.10;22.00;;;;;;5015673;28;20427;-65
2020/12/02 12:58:40;;;;;;;14.68;12.40;;;5.10;99.90;;;;;;5018425;28;20466;-66
2020/12/02 13:01:09;;;;;;;13.35;11.93;;;5.20;99.90;;;;;;5015512;28;20409;-65
2020/12/02 13:03:36;;;;;;;14.07;12.05;;;5.10;99.90;;;;;;5014292;28;20436;-64
2020/12/02 13:06:18;;;;;;;13.13;11.40;;;5.20;99.90;;;;;;5014844;28;20500;-64
2020/12/02 13:09:00;;;;;;;13.30;11.00;;;5.20;99.90;;;;;;5014487;28;20763;-63
2020/12/02 13:11:39;;;;;;;13.15;11.20;;;5.30;99.90;;;;;;5014541;28;20908;-66
2020/12/02 13:14:13;;;;;;;12.02;10.77;;;5.40;99.90;;;;;;5014412;28;20450;-65
2020/12/02 13:16:46;;;;;;;14.90;11.32;;;5.20;1.00;;;;;;5014828;28;20504;-65